sensor_id;sensor_type;location;lat;lon;timestamp;temperature;humidity
24384;DHT22;12504;52.870;8.798;2023-03-01T07:56:22;-1.90;99.90
24384;DHT22;12504;52.870;8.798;2023-03-01T07:58:48;-1.80;99.90
24384;DHT22;12504;52.870;8.798;2023-03-01T08:01:17;-1.70;99.90
24384;DHT22;12504;52.870;8.798;2023-03-01T08:03:43;-1.60;99.90
24384;DHT22;12504;52.870;8.798;2023-03-01T08:06:10;-1.50;99.90
24384;DHT22;12504;52.870;8.798;2023-03-01T08:08:36;-1.30;99.90
24384;DHT22;12504;52.870;8.798;2023-03-01T08:11:04;-1.20;99.90
24384;DHT22;12504;52.870;8.798;2023-03-01T08:13:31;-1.10;99.90
24384;DHT22;12504;52.870;8.798;2023-03-01T08:16:08;-1.00;99.90
24384;DHT22;12504;52.870;8.798;2023-03-01T08:18:35;-0.90;99.90
24384;DHT22;12504;52.870;8.798;2023-03-01T08:21:09;-0.80;99.90
24384;DHT22;12504;52.870;8.798;2023-03-01T08:23:35;-0.70;99.90
24384;DHT22;12504;52.870;8.798;2023-03-01T08:28:38;-0.50;99.90
24384;DHT22;12504;52.870;8.798;2023-03-01T08:31:26;-0.30;99.90
24384;DHT22;12504;52.870;8.798;2023-03-01T08:33:54;-0.20;99.90
24384;DHT22;12504;52.870;8.798;2023-03-01T08:36:26;0.00;99.90
24384;DHT22;12504;52.870;8.798;2023-03-01T08:38:52;0.00;99.90
24384;DHT22;12504;52.870;8.798;2023-03-01T08:41:18;0.20;99.90
24384;DHT22;12504;52.870;8.798;2023-03-01T08:43:43;0.30;99.90
24384;DHT22;12504;52.870;8.798;2023-03-01T08:46:10;0.40;99.90
24384;DHT22;12504;52.870;8.798;2023-03-01T08:48:36;0.60;99.90
24384;DHT22;12504;52.870;8.798;2023-03-01T08:51:16;0.80;99.90
24384;DHT22;12504;52.870;8.798;2023-03-01T08:53:42;0.90;99.90
24384;DHT22;12504;52.870;8.798;2023-03-01T08:56:09;1.00;99.90
24384;DHT22;12504;52.870;8.798;2023-03-01T08:58:35;1.10;99.90
24384;DHT22;12504;52.870;8.798;2023-03-01T09:01:07;1.20;99.90
24384;DHT22;12504;52.870;8.798;2023-03-01T09:03:33;1.20;99.90
24384;DHT22;12504;52.870;8.798;2023-03-01T09:06:03;1.30;99.90
24384;DHT22;12504;52.870;8.798;2023-03-01T09:08:30;1.40;99.90
24384;DHT22;12504;52.870;8.798;2023-03-01T09:10:56;1.60;99.90
24384;DHT22;12504;52.870;8.798;2023-03-01T09:13:22;1.60;99.90
24384;DHT22;12504;52.870;8.798;2023-03-01T09:15:51;1.70;99.90
24384;DHT22;12504;52.870;8.798;2023-03-01T09:18:17;1.90;99.90
24384;DHT22;12504;52.870;8.798;2023-03-01T09:20:42;2.00;99.90
24384;DHT22;12504;52.870;8.798;2023-03-01T09:23:08;2.20;99.90
24384;DHT22;12504;52.870;8.798;2023-03-01T09:25:34;2.10;99.90
24384;DHT22;12504;52.870;8.798;2023-03-01T09:28:00;2.10;99.90
24384;DHT22;12504;52.870;8.798;2023-03-01T09:30:26;2.10;99.90
24384;DHT22;12504;52.870;8.798;2023-03-01T09:32:52;2.10;99.90
24384;DHT22;12504;52.870;8.798;2023-03-01T09:35:18;2.20;99.90
24384;DHT22;12504;52.870;8.798;2023-03-01T09:37:45;2.30;99.90
24384;DHT22;12504;52.870;8.798;2023-03-01T09:40:20;2.50;99.90
24384;DHT22;12504;52.870;8.798;2023-03-01T09:43:07;2.60;99.90
24384;DHT22;12504;52.870;8.798;2023-03-01T09:45:36;2.70;99.90
24384;DHT22;12504;52.870;8.798;2023-03-01T09:48:04;2.80;99.90
24384;DHT22;12504;52.870;8.798;2023-03-01T09:50:35;2.80;99.90
24384;DHT22;12504;52.870;8.798;2023-03-01T09:53:09;2.90;99.90
24384;DHT22;12504;52.870;8.798;2023-03-01T09:55:42;3.00;99.90
24384;DHT22;12504;52.870;8.798;2023-03-01T10:00:59;3.00;91.50
24384;DHT22;12504;52.870;8.798;2023-03-01T10:03:43;3.20;59.30
24384;DHT22;12504;52.870;8.798;2023-03-01T10:06:16;3.30;71.50
24384;DHT22;12504;52.870;8.798;2023-03-01T10:09:07;3.30;47.70
24384;DHT22;12504;52.870;8.798;2023-03-01T10:11:38;3.40;67.50
24384;DHT22;12504;52.870;8.798;2023-03-01T10:14:40;3.50;30.60
24384;DHT22;12504;52.870;8.798;2023-03-01T10:17:30;3.70;32.50
24384;DHT22;12504;52.870;8.798;2023-03-01T10:20:16;3.70;39.50
24384;DHT22;12504;52.870;8.798;2023-03-01T10:22:43;3.70;39.10
24384;DHT22;12504;52.870;8.798;2023-03-01T10:25:14;3.70;42.70
24384;DHT22;12504;52.870;8.798;2023-03-01T10:27:51;3.80;14.30
24384;DHT22;12504;52.870;8.798;2023-03-01T10:30:21;3.90;16.40
24384;DHT22;12504;52.870;8.798;2023-03-01T10:32:50;4.00;9.10
24384;DHT22;12504;52.870;8.798;2023-03-01T10:35:20;4.00;10.80
24384;DHT22;12504;52.870;8.798;2023-03-01T10:38:05;4.00;16.50
24384;DHT22;12504;52.870;8.798;2023-03-01T10:40:36;4.00;15.90
24384;DHT22;12504;52.870;8.798;2023-03-01T10:43:04;4.10;1.00
24384;DHT22;12504;52.870;8.798;2023-03-01T10:45:39;4.10;1.00
24384;DHT22;12504;52.870;8.798;2023-03-01T10:48:24;4.30;12.10
24384;DHT22;12504;52.870;8.798;2023-03-01T10:51:06;4.40;2.30
24384;DHT22;12504;52.870;8.798;2023-03-01T10:53:45;4.50;1.00
24384;DHT22;12504;52.870;8.798;2023-03-01T10:56:14;4.70;1.00
24384;DHT22;12504;52.870;8.798;2023-03-01T11:06:32;4.90;4.30
24384;DHT22;12504;52.870;8.798;2023-03-01T11:09:17;5.00;4.50
24384;DHT22;12504;52.870;8.798;2023-03-01T11:11:44;5.00;1.00
24384;DHT22;12504;52.870;8.798;2023-03-01T11:16:49;5.10;1.00
24384;DHT22;12504;52.870;8.798;2023-03-01T11:19:24;5.10;1.00
24384;DHT22;12504;52.870;8.798;2023-03-01T11:22:04;5.20;1.00
24384;DHT22;12504;52.870;8.798;2023-03-01T11:24:36;5.20;39.20
24384;DHT22;12504;52.870;8.798;2023-03-01T11:27:14;5.30;35.50
24384;DHT22;12504;52.870;8.798;2023-03-01T11:29:55;5.40;36.90
24384;DHT22;12504;52.870;8.798;2023-03-01T11:32:25;5.60;22.90
24384;DHT22;12504;52.870;8.798;2023-03-01T11:35:10;5.50;21.10
24384;DHT22;12504;52.870;8.798;2023-03-01T11:40:32;5.90;23.80
24384;DHT22;12504;52.870;8.798;2023-03-01T11:43:19;7.40;12.90
24384;DHT22;12504;52.870;8.798;2023-03-01T11:46:24;9.30;1.00
24384;DHT22;12504;52.870;8.798;2023-03-01T11:54:13;11.90;98.20
24384;DHT22;12504;52.870;8.798;2023-03-01T12:02:40;13.10;99.90
24384;DHT22;12504;52.870;8.798;2023-03-01T12:05:20;12.50;99.90
24384;DHT22;12504;52.870;8.798;2023-03-01T12:08:20;12.60;99.90
24384;DHT22;12504;52.870;8.798;2023-03-01T12:16:23;13.10;99.90
24384;DHT22;12504;52.870;8.798;2023-03-01T12:22:17;12.60;99.90
24384;DHT22;12504;52.870;8.798;2023-03-01T12:38:18;11.70;99.90
24384;DHT22;12504;52.870;8.798;2023-03-01T12:41:08;11.70;99.90
24384;DHT22;12504;52.870;8.798;2023-03-01T12:49:13;10.60;99.90
24384;DHT22;12504;52.870;8.798;2023-03-01T12:51:43;10.40;99.90
24384;DHT22;12504;52.870;8.798;2023-03-01T12:54:28;10.30;99.90
24384;DHT22;12504;52.870;8.798;2023-03-01T12:56:57;10.10;99.90
24384;DHT22;12504;52.870;8.798;2023-03-01T13:17:48;8.90;1.00
24384;DHT22;12504;52.870;8.798;2023-03-01T13:20:20;9.10;1.00
24384;DHT22;12504;52.870;8.798;2023-03-01T13:22:47;9.00;1.00
24384;DHT22;12504;52.870;8.798;2023-03-01T13:25:16;9.00;1.00
24384;DHT22;12504;52.870;8.798;2023-03-01T13:27:44;9.10;1.00
24384;DHT22;12504;52.870;8.798;2023-03-01T13:35:54;9.10;1.00
24384;DHT22;12504;52.870;8.798;2023-03-01T13:38:44;8.90;1.00
24384;DHT22;12504;52.870;8.798;2023-03-01T13:41:15;9.00;1.00
24384;DHT22;12504;52.870;8.798;2023-03-01T13:43:42;9.10;1.00
24384;DHT22;12504;52.870;8.798;2023-03-01T13:46:26;9.10;1.00
24384;DHT22;12504;52.870;8.798;2023-03-01T13:48:55;9.30;1.00
24384;DHT22;12504;52.870;8.798;2023-03-01T13:51:24;9.60;1.00
24384;DHT22;12504;52.870;8.798;2023-03-01T13:53:52;9.90;1.00
24384;DHT22;12504;52.870;8.798;2023-03-01T13:56:20;9.90;1.00
24384;DHT22;12504;52.870;8.798;2023-03-01T13:58:53;9.70;1.00
24384;DHT22;12504;52.870;8.798;2023-03-01T14:01:26;9.60;1.00
24384;DHT22;12504;52.870;8.798;2023-03-01T14:03:53;9.60;1.00
24384;DHT22;12504;52.870;8.798;2023-03-01T14:06:37;9.40;1.00
24384;DHT22;12504;52.870;8.798;2023-03-01T14:09:21;9.30;1.00
24384;DHT22;12504;52.870;8.798;2023-03-01T14:12:00;9.30;1.00
24384;DHT22;12504;52.870;8.798;2023-03-01T14:14:39;9.10;1.00
24384;DHT22;12504;52.870;8.798;2023-03-01T14:19:47;9.10;1.00
24384;DHT22;12504;52.870;8.798;2023-03-01T14:22:33;8.80;1.00
24384;DHT22;12504;52.870;8.798;2023-03-01T14:25:06;8.90;1.00
24384;DHT22;12504;52.870;8.798;2023-03-01T14:27:41;8.80;1.00
24384;DHT22;12504;52.870;8.798;2023-03-01T14:32:42;8.70;1.00
24384;DHT22;12504;52.870;8.798;2023-03-01T14:35:51;8.70;1.00
24384;DHT22;12504;52.870;8.798;2023-03-01T14:38:22;8.80;1.00
24384;DHT22;12504;52.870;8.798;2023-03-01T14:40:51;8.80;1.00
24384;DHT22;12504;52.870;8.798;2023-03-01T14:43:22;9.00;1.00
24384;DHT22;12504;52.870;8.798;2023-03-01T14:45:50;9.20;1.00
24384;DHT22;12504;52.870;8.798;2023-03-01T14:48:16;9.20;1.00
24384;DHT22;12504;52.870;8.798;2023-03-01T14:50:43;9.30;1.00
24384;DHT22;12504;52.870;8.798;2023-03-01T14:53:21;9.40;1.00
24384;DHT22;12504;52.870;8.798;2023-03-01T14:55:55;9.30;1.00
24384;DHT22;12504;52.870;8.798;2023-03-01T14:58:23;9.00;1.00
24384;DHT22;12504;52.870;8.798;2023-03-01T15:00:58;8.80;1.00
24384;DHT22;12504;52.870;8.798;2023-03-01T15:03:31;8.70;1.00
24384;DHT22;12504;52.870;8.798;2023-03-01T15:06:00;8.90;1.00
24384;DHT22;12504;52.870;8.798;2023-03-01T15:08:27;8.90;1.00
24384;DHT22;12504;52.870;8.798;2023-03-01T15:13:40;8.90;1.00
24384;DHT22;12504;52.870;8.798;2023-03-01T15:16:27;8.60;1.00
24384;DHT22;12504;52.870;8.798;2023-03-01T15:19:00;8.60;1.00
24384;DHT22;12504;52.870;8.798;2023-03-01T15:21:31;8.50;1.00
24384;DHT22;12504;52.870;8.798;2023-03-01T15:26:31;8.80;1.00
24384;DHT22;12504;52.870;8.798;2023-03-01T15:28:59;8.80;1.00
24384;DHT22;12504;52.870;8.798;2023-03-01T15:31:32;8.70;1.00
24384;DHT22;12504;52.870;8.798;2023-03-01T15:36:46;8.40;1.00
24384;DHT22;12504;52.870;8.798;2023-03-01T15:39:30;8.40;1.00
24384;DHT22;12504;52.870;8.798;2023-03-01T15:41:58;8.50;1.00
24384;DHT22;12504;52.870;8.798;2023-03-01T15:44:32;8.40;1.00
24384;DHT22;12504;52.870;8.798;2023-03-01T15:46:58;8.30;1.00
24384;DHT22;12504;52.870;8.798;2023-03-01T15:51:59;8.30;1.00
24384;DHT22;12504;52.870;8.798;2023-03-01T15:54:25;8.30;1.00
24384;DHT22;12504;52.870;8.798;2023-03-01T15:56:52;8.30;1.00
24384;DHT22;12504;52.870;8.798;2023-03-01T15:59:18;8.20;1.00
24384;DHT22;12504;52.870;8.798;2023-03-01T16:01:45;8.20;1.00
24384;DHT22;12504;52.870;8.798;2023-03-01T16:04:15;8.10;1.00
24384;DHT22;12504;52.870;8.798;2023-03-01T16:06:51;7.90;1.00
24384;DHT22;12504;52.870;8.798;2023-03-01T16:09:21;7.70;1.00
24384;DHT22;12504;52.870;8.798;2023-03-01T16:11:50;7.60;1.00
24384;DHT22;12504;52.870;8.798;2023-03-01T16:14:16;7.60;1.00
24384;DHT22;12504;52.870;8.798;2023-03-01T16:16:43;7.40;1.00
24384;DHT22;12504;52.870;8.798;2023-03-01T16:19:09;7.30;1.00
24384;DHT22;12504;52.870;8.798;2023-03-01T16:21:35;7.40;1.00
24384;DHT22;12504;52.870;8.798;2023-03-01T16:24:01;7.30;1.00
24384;DHT22;12504;52.870;8.798;2023-03-01T16:26:27;7.30;1.00
24384;DHT22;12504;52.870;8.798;2023-03-01T16:28:56;7.20;1.00
24384;DHT22;12504;52.870;8.798;2023-03-01T16:31:23;7.20;1.00
24384;DHT22;12504;52.870;8.798;2023-03-01T16:33:53;7.10;4.10
24384;DHT22;12504;52.870;8.798;2023-03-01T16:36:20;7.10;10.30
24384;DHT22;12504;52.870;8.798;2023-03-01T16:38:46;7.00;12.00
24384;DHT22;12504;52.870;8.798;2023-03-01T16:41:17;6.90;15.90
24384;DHT22;12504;52.870;8.798;2023-03-01T16:43:43;6.70;28.30
24384;DHT22;12504;52.870;8.798;2023-03-01T16:46:17;6.50;38.20
24384;DHT22;12504;52.870;8.798;2023-03-01T16:48:43;6.40;48.90
24384;DHT22;12504;52.870;8.798;2023-03-01T16:51:09;6.20;58.40
24384;DHT22;12504;52.870;8.798;2023-03-01T16:53:35;6.00;69.10
24384;DHT22;12504;52.870;8.798;2023-03-01T16:56:03;5.90;93.10
24384;DHT22;12504;52.870;8.798;2023-03-01T16:58:29;5.70;93.60
24384;DHT22;12504;52.870;8.798;2023-03-01T17:00:55;5.50;98.00
24384;DHT22;12504;52.870;8.798;2023-03-01T17:03:26;5.30;99.90
24384;DHT22;12504;52.870;8.798;2023-03-01T17:05:51;5.10;99.90
24384;DHT22;12504;52.870;8.798;2023-03-01T17:08:39;5.00;99.90
24384;DHT22;12504;52.870;8.798;2023-03-01T17:11:10;4.90;99.90
24384;DHT22;12504;52.870;8.798;2023-03-01T17:13:37;4.90;99.90
24384;DHT22;12504;52.870;8.798;2023-03-01T17:16:13;4.90;99.90
24384;DHT22;12504;52.870;8.798;2023-03-01T17:18:39;4.80;99.90
24384;DHT22;12504;52.870;8.798;2023-03-01T17:21:06;4.70;99.90
24384;DHT22;12504;52.870;8.798;2023-03-01T17:23:34;4.70;99.90
24384;DHT22;12504;52.870;8.798;2023-03-01T17:26:01;4.80;99.90
24384;DHT22;12504;52.870;8.798;2023-03-01T17:28:29;4.70;99.90
24384;DHT22;12504;52.870;8.798;2023-03-01T17:30:56;4.80;99.90
24384;DHT22;12504;52.870;8.798;2023-03-01T17:33:22;4.80;99.90
24384;DHT22;12504;52.870;8.798;2023-03-01T17:35:49;4.80;99.90
24384;DHT22;12504;52.870;8.798;2023-03-01T17:38:15;4.80;99.90
24384;DHT22;12504;52.870;8.798;2023-03-01T17:40:42;4.80;99.90
24384;DHT22;12504;52.870;8.798;2023-03-01T17:43:11;4.80;99.90
24384;DHT22;12504;52.870;8.798;2023-03-01T17:45:38;4.70;99.90
24384;DHT22;12504;52.870;8.798;2023-03-01T17:48:05;4.70;99.90
24384;DHT22;12504;52.870;8.798;2023-03-01T17:50:31;4.60;99.90
24384;DHT22;12504;52.870;8.798;2023-03-01T17:52:57;4.60;99.90
24384;DHT22;12504;52.870;8.798;2023-03-01T17:55:23;4.50;99.90
24384;DHT22;12504;52.870;8.798;2023-03-01T17:57:49;4.50;99.90
24384;DHT22;12504;52.870;8.798;2023-03-01T18:00:17;4.50;99.90
24384;DHT22;12504;52.870;8.798;2023-03-01T18:02:43;4.40;99.90
24384;DHT22;12504;52.870;8.798;2023-03-01T18:05:10;4.40;99.90
24384;DHT22;12504;52.870;8.798;2023-03-01T18:07:36;4.30;99.90
24384;DHT22;12504;52.870;8.798;2023-03-01T18:10:02;4.30;99.90
24384;DHT22;12504;52.870;8.798;2023-03-01T18:12:28;4.30;99.90
24384;DHT22;12504;52.870;8.798;2023-03-01T18:14:53;4.30;99.90
24384;DHT22;12504;52.870;8.798;2023-03-01T18:17:20;4.20;99.90
24384;DHT22;12504;52.870;8.798;2023-03-01T18:19:46;4.20;99.90
24384;DHT22;12504;52.870;8.798;2023-03-01T18:22:12;4.20;99.90
24384;DHT22;12504;52.870;8.798;2023-03-01T18:24:38;4.20;99.90
24384;DHT22;12504;52.870;8.798;2023-03-01T18:27:04;4.10;99.90
24384;DHT22;12504;52.870;8.798;2023-03-01T18:29:30;4.10;99.90
24384;DHT22;12504;52.870;8.798;2023-03-01T18:31:55;4.10;99.90
24384;DHT22;12504;52.870;8.798;2023-03-01T18:34:21;4.10;99.90
24384;DHT22;12504;52.870;8.798;2023-03-01T18:36:47;4.00;99.90
24384;DHT22;12504;52.870;8.798;2023-03-01T18:39:16;4.00;99.90
24384;DHT22;12504;52.870;8.798;2023-03-01T18:41:44;4.00;99.90
24384;DHT22;12504;52.870;8.798;2023-03-01T18:44:10;3.90;99.90
24384;DHT22;12504;52.870;8.798;2023-03-01T18:46:36;3.90;99.90
24384;DHT22;12504;52.870;8.798;2023-03-01T18:49:03;3.80;99.90
24384;DHT22;12504;52.870;8.798;2023-03-01T18:51:29;3.80;99.90
24384;DHT22;12504;52.870;8.798;2023-03-01T18:53:55;3.70;99.90
24384;DHT22;12504;52.870;8.798;2023-03-01T18:56:24;3.70;99.90
24384;DHT22;12504;52.870;8.798;2023-03-01T18:58:49;3.60;99.90
24384;DHT22;12504;52.870;8.798;2023-03-01T19:01:18;3.60;99.90
24384;DHT22;12504;52.870;8.798;2023-03-01T19:03:45;3.50;99.90
24384;DHT22;12504;52.870;8.798;2023-03-01T19:06:10;3.50;99.90
24384;DHT22;12504;52.870;8.798;2023-03-01T19:08:37;3.50;99.90
24384;DHT22;12504;52.870;8.798;2023-03-01T19:11:05;3.40;99.90
24384;DHT22;12504;52.870;8.798;2023-03-01T19:13:33;3.40;99.90
24384;DHT22;12504;52.870;8.798;2023-03-01T19:16:14;3.30;99.90
24384;DHT22;12504;52.870;8.798;2023-03-01T19:18:41;3.30;99.90
24384;DHT22;12504;52.870;8.798;2023-03-01T19:21:10;3.20;99.90
24384;DHT22;12504;52.870;8.798;2023-03-01T19:23:36;3.20;99.90
24384;DHT22;12504;52.870;8.798;2023-03-01T19:26:07;3.20;99.90
24384;DHT22;12504;52.870;8.798;2023-03-01T19:28:34;3.10;99.90
24384;DHT22;12504;52.870;8.798;2023-03-01T19:31:02;3.10;99.90
24384;DHT22;12504;52.870;8.798;2023-03-01T19:33:32;3.00;99.90
24384;DHT22;12504;52.870;8.798;2023-03-01T19:35:58;2.90;99.90
24384;DHT22;12504;52.870;8.798;2023-03-01T19:38:26;2.90;99.90
24384;DHT22;12504;52.870;8.798;2023-03-01T19:40:52;2.80;99.90
24384;DHT22;12504;52.870;8.798;2023-03-01T19:43:18;2.70;99.90
24384;DHT22;12504;52.870;8.798;2023-03-01T19:45:44;2.70;99.90
24384;DHT22;12504;52.870;8.798;2023-03-01T19:48:11;2.70;99.90
24384;DHT22;12504;52.870;8.798;2023-03-01T19:50:37;2.70;99.90
24384;DHT22;12504;52.870;8.798;2023-03-01T19:53:04;2.60;99.90
24384;DHT22;12504;52.870;8.798;2023-03-01T19:55:30;2.50;99.90
24384;DHT22;12504;52.870;8.798;2023-03-01T19:57:57;2.50;99.90
24384;DHT22;12504;52.870;8.798;2023-03-01T20:00:22;2.40;99.90
24384;DHT22;12504;52.870;8.798;2023-03-01T20:03:06;2.40;99.90
24384;DHT22;12504;52.870;8.798;2023-03-01T20:05:33;2.40;99.90
24384;DHT22;12504;52.870;8.798;2023-03-01T20:07:59;2.40;99.90
24384;DHT22;12504;52.870;8.798;2023-03-01T20:10:28;2.40;99.90
24384;DHT22;12504;52.870;8.798;2023-03-01T20:12:54;2.40;99.90
24384;DHT22;12504;52.870;8.798;2023-03-01T20:15:20;2.30;99.90
24384;DHT22;12504;52.870;8.798;2023-03-01T20:18:05;2.30;99.90
24384;DHT22;12504;52.870;8.798;2023-03-01T20:20:31;2.20;99.90
24384;DHT22;12504;52.870;8.798;2023-03-01T20:22:57;2.20;99.90
24384;DHT22;12504;52.870;8.798;2023-03-01T20:25:24;2.10;99.90
24384;DHT22;12504;52.870;8.798;2023-03-01T20:28:09;2.10;99.90
24384;DHT22;12504;52.870;8.798;2023-03-01T20:30:38;2.10;99.90
24384;DHT22;12504;52.870;8.798;2023-03-01T20:33:04;2.00;99.90
24384;DHT22;12504;52.870;8.798;2023-03-01T20:35:30;1.90;99.90
24384;DHT22;12504;52.870;8.798;2023-03-01T20:38:00;1.90;99.90
24384;DHT22;12504;52.870;8.798;2023-03-01T20:40:27;1.80;99.90
24384;DHT22;12504;52.870;8.798;2023-03-01T20:42:59;1.80;99.90
24384;DHT22;12504;52.870;8.798;2023-03-01T20:45:25;1.70;99.90
24384;DHT22;12504;52.870;8.798;2023-03-01T20:47:51;1.70;99.90
24384;DHT22;12504;52.870;8.798;2023-03-01T20:50:18;1.60;99.90
24384;DHT22;12504;52.870;8.798;2023-03-01T20:52:44;1.60;99.90
24384;DHT22;12504;52.870;8.798;2023-03-01T20:55:10;1.50;99.90
24384;DHT22;12504;52.870;8.798;2023-03-01T20:57:36;1.50;99.90
24384;DHT22;12504;52.870;8.798;2023-03-01T21:00:03;1.50;99.90
24384;DHT22;12504;52.870;8.798;2023-03-01T21:02:31;1.40;99.90
24384;DHT22;12504;52.870;8.798;2023-03-01T21:04:57;1.40;99.90
24384;DHT22;12504;52.870;8.798;2023-03-01T21:07:23;1.40;99.90
24384;DHT22;12504;52.870;8.798;2023-03-01T21:09:49;1.30;99.90
24384;DHT22;12504;52.870;8.798;2023-03-01T21:12:14;1.30;99.90
24384;DHT22;12504;52.870;8.798;2023-03-01T21:14:40;1.30;99.90
24384;DHT22;12504;52.870;8.798;2023-03-01T21:17:12;1.20;99.90
24384;DHT22;12504;52.870;8.798;2023-03-01T21:19:39;1.30;99.90
24384;DHT22;12504;52.870;8.798;2023-03-01T21:22:13;1.20;99.90
24384;DHT22;12504;52.870;8.798;2023-03-01T21:24:40;1.20;99.90
24384;DHT22;12504;52.870;8.798;2023-03-01T21:27:06;1.20;99.90
24384;DHT22;12504;52.870;8.798;2023-03-01T21:29:33;1.20;99.90
24384;DHT22;12504;52.870;8.798;2023-03-01T21:31:59;1.20;99.90
24384;DHT22;12504;52.870;8.798;2023-03-01T21:34:24;1.20;99.90
24384;DHT22;12504;52.870;8.798;2023-03-01T21:36:50;1.20;99.90
24384;DHT22;12504;52.870;8.798;2023-03-01T21:39:16;1.20;99.90
24384;DHT22;12504;52.870;8.798;2023-03-01T21:41:41;1.20;99.90
24384;DHT22;12504;52.870;8.798;2023-03-01T21:44:09;1.20;99.90
24384;DHT22;12504;52.870;8.798;2023-03-01T21:46:38;1.20;99.90
24384;DHT22;12504;52.870;8.798;2023-03-01T21:49:05;1.20;99.90
24384;DHT22;12504;52.870;8.798;2023-03-01T21:51:50;1.30;99.90
24384;DHT22;12504;52.870;8.798;2023-03-01T21:54:17;1.30;99.90
24384;DHT22;12504;52.870;8.798;2023-03-01T21:56:44;1.30;99.90
24384;DHT22;12504;52.870;8.798;2023-03-01T21:59:13;1.20;99.90
24384;DHT22;12504;52.870;8.798;2023-03-01T22:01:39;1.30;99.90
24384;DHT22;12504;52.870;8.798;2023-03-01T22:04:05;1.30;99.90
24384;DHT22;12504;52.870;8.798;2023-03-01T22:06:33;1.30;99.90
24384;DHT22;12504;52.870;8.798;2023-03-01T22:09:17;1.30;99.90
24384;DHT22;12504;52.870;8.798;2023-03-01T22:11:49;1.30;99.90
24384;DHT22;12504;52.870;8.798;2023-03-01T22:14:17;1.20;99.90
24384;DHT22;12504;52.870;8.798;2023-03-01T22:16:44;1.20;99.90
24384;DHT22;12504;52.870;8.798;2023-03-01T22:19:11;1.30;99.90
24384;DHT22;12504;52.870;8.798;2023-03-01T22:21:39;1.30;99.90
24384;DHT22;12504;52.870;8.798;2023-03-01T22:24:06;1.20;99.90
24384;DHT22;12504;52.870;8.798;2023-03-01T22:26:38;1.30;99.90
24384;DHT22;12504;52.870;8.798;2023-03-01T22:29:15;1.20;99.90
24384;DHT22;12504;52.870;8.798;2023-03-01T22:31:42;1.20;99.90
24384;DHT22;12504;52.870;8.798;2023-03-01T22:34:08;1.30;99.90
24384;DHT22;12504;52.870;8.798;2023-03-01T22:36:34;1.20;99.90
24384;DHT22;12504;52.870;8.798;2023-03-01T22:39:00;1.30;99.90
24384;DHT22;12504;52.870;8.798;2023-03-01T22:41:28;1.30;99.90
24384;DHT22;12504;52.870;8.798;2023-03-01T22:43:55;1.30;99.90
24384;DHT22;12504;52.870;8.798;2023-03-01T22:46:24;1.20;99.90
24384;DHT22;12504;52.870;8.798;2023-03-01T22:48:51;1.20;99.90
24384;DHT22;12504;52.870;8.798;2023-03-01T22:57:15;1.20;99.90
24384;DHT22;12504;52.870;8.798;2023-03-01T22:59:41;1.20;99.90
24384;DHT22;12504;52.870;8.798;2023-03-01T23:02:07;1.20;99.90
24384;DHT22;12504;52.870;8.798;2023-03-01T23:04:34;1.10;99.90
24384;DHT22;12504;52.870;8.798;2023-03-01T23:07:00;1.10;99.90
24384;DHT22;12504;52.870;8.798;2023-03-01T23:09:28;1.10;99.90
24384;DHT22;12504;52.870;8.798;2023-03-01T23:11:58;1.10;99.90
24384;DHT22;12504;52.870;8.798;2023-03-01T23:14:25;1.10;99.90
24384;DHT22;12504;52.870;8.798;2023-03-01T23:16:51;1.10;99.90
24384;DHT22;12504;52.870;8.798;2023-03-01T23:19:18;1.10;99.90
24384;DHT22;12504;52.870;8.798;2023-03-01T23:21:45;1.00;99.90
24384;DHT22;12504;52.870;8.798;2023-03-01T23:24:20;1.10;99.90
24384;DHT22;12504;52.870;8.798;2023-03-01T23:26:47;1.10;99.90
24384;DHT22;12504;52.870;8.798;2023-03-01T23:29:19;1.10;99.90
24384;DHT22;12504;52.870;8.798;2023-03-01T23:31:45;1.10;99.90
24384;DHT22;12504;52.870;8.798;2023-03-01T23:34:11;1.00;99.90
24384;DHT22;12504;52.870;8.798;2023-03-01T23:36:37;1.00;99.90
24384;DHT22;12504;52.870;8.798;2023-03-01T23:39:11;1.00;99.90
24384;DHT22;12504;52.870;8.798;2023-03-01T23:41:37;1.10;99.90
24384;DHT22;12504;52.870;8.798;2023-03-01T23:44:04;1.10;99.90
24384;DHT22;12504;52.870;8.798;2023-03-01T23:46:33;1.10;99.90
24384;DHT22;12504;52.870;8.798;2023-03-01T23:49:00;1.10;99.90
24384;DHT22;12504;52.870;8.798;2023-03-01T23:51:26;1.10;99.90
24384;DHT22;12504;52.870;8.798;2023-03-01T23:53:56;1.10;99.90
24384;DHT22;12504;52.870;8.798;2023-03-01T23:56:33;1.10;99.90
24384;DHT22;12504;52.870;8.798;2023-03-01T23:59:10;1.10;99.90
